sensor_id;sensor_type;location;lat;lon;timestamp;temperature;humidity
44377;DHT22;30093;0.000;0.000;2022-11-04T00:03:39;11.30;1.00
44377;DHT22;30093;0.000;0.000;2022-11-04T00:07:27;11.40;1.00
44377;DHT22;30093;0.000;0.000;2022-11-04T00:11:34;11.50;1.00
44377;DHT22;30093;0.000;0.000;2022-11-04T00:15:41;11.60;1.00
44377;DHT22;30093;0.000;0.000;2022-11-04T00:19:50;11.70;1.00
44377;DHT22;30093;0.000;0.000;2022-11-04T00:23:58;11.70;99.90
44377;DHT22;30093;0.000;0.000;2022-11-04T00:28:14;11.80;99.90
44377;DHT22;30093;0.000;0.000;2022-11-04T00:32:20;11.80;99.90
44377;DHT22;30093;0.000;0.000;2022-11-04T00:36:27;11.80;99.90
44377;DHT22;30093;0.000;0.000;2022-11-04T00:40:15;11.80;99.90
44377;DHT22;30093;0.000;0.000;2022-11-04T00:44:04;11.80;99.90
44377;DHT22;30093;0.000;0.000;2022-11-04T00:47:52;11.80;99.90
44377;DHT22;30093;0.000;0.000;2022-11-04T00:51:43;11.80;99.90
44377;DHT22;30093;0.000;0.000;2022-11-04T00:55:31;11.80;99.90
44377;DHT22;30093;0.000;0.000;2022-11-04T00:59:19;11.80;99.90
44377;DHT22;30093;0.000;0.000;2022-11-04T01:03:07;11.90;99.90
44377;DHT22;30093;0.000;0.000;2022-11-04T01:06:55;11.90;99.90
44377;DHT22;30093;0.000;0.000;2022-11-04T01:10:43;11.90;99.90
44377;DHT22;30093;0.000;0.000;2022-11-04T01:14:31;11.90;99.90
44377;DHT22;30093;0.000;0.000;2022-11-04T01:18:19;11.90;99.90
44377;DHT22;30093;0.000;0.000;2022-11-04T01:22:07;12.00;92.40
44377;DHT22;30093;0.000;0.000;2022-11-04T01:25:55;11.90;70.90
44377;DHT22;30093;0.000;0.000;2022-11-04T01:29:43;12.00;82.10
44377;DHT22;30093;0.000;0.000;2022-11-04T01:33:33;12.00;44.90
44377;DHT22;30093;0.000;0.000;2022-11-04T01:37:21;12.10;32.30
44377;DHT22;30093;0.000;0.000;2022-11-04T01:41:23;12.00;19.10
44377;DHT22;30093;0.000;0.000;2022-11-04T01:45:14;12.00;40.10
44377;DHT22;30093;0.000;0.000;2022-11-04T01:49:31;12.00;31.90
44377;DHT22;30093;0.000;0.000;2022-11-04T01:53:33;12.00;16.30
44377;DHT22;30093;0.000;0.000;2022-11-04T01:57:32;12.10;20.00
44377;DHT22;30093;0.000;0.000;2022-11-04T02:01:22;12.10;17.80
44377;DHT22;30093;0.000;0.000;2022-11-04T02:05:12;12.10;15.50
44377;DHT22;30093;0.000;0.000;2022-11-04T02:09:01;12.10;2.60
44377;DHT22;30093;0.000;0.000;2022-11-04T02:12:49;12.20;14.10
44377;DHT22;30093;0.000;0.000;2022-11-04T02:16:42;12.20;17.80
44377;DHT22;30093;0.000;0.000;2022-11-04T02:33:45;12.30;24.10
44377;DHT22;30093;0.000;0.000;2022-11-04T02:41:55;12.20;19.20
44377;DHT22;30093;0.000;0.000;2022-11-04T02:45:47;12.20;5.90
44377;DHT22;30093;0.000;0.000;2022-11-04T02:49:52;12.20;1.00
44377;DHT22;30093;0.000;0.000;2022-11-04T02:57:56;12.30;1.00
44377;DHT22;30093;0.000;0.000;2022-11-04T03:01:48;12.30;1.00
44377;DHT22;30093;0.000;0.000;2022-11-04T03:05:41;12.30;1.00
44377;DHT22;30093;0.000;0.000;2022-11-04T03:09:33;12.30;1.00
44377;DHT22;30093;0.000;0.000;2022-11-04T03:13:35;12.30;1.00
44377;DHT22;30093;0.000;0.000;2022-11-04T03:21:15;12.40;1.00
44377;DHT22;30093;0.000;0.000;2022-11-04T03:25:06;12.50;1.00
44377;DHT22;30093;0.000;0.000;2022-11-04T03:33:03;10.30;1.00
44377;DHT22;30093;0.000;0.000;2022-11-04T03:36:52;12.50;1.00
44377;DHT22;30093;0.000;0.000;2022-11-04T03:40:40;12.60;1.00
44377;DHT22;30093;0.000;0.000;2022-11-04T03:44:29;12.60;1.00
44377;DHT22;30093;0.000;0.000;2022-11-04T03:48:17;12.60;1.00
44377;DHT22;30093;0.000;0.000;2022-11-04T03:52:06;12.60;1.00
44377;DHT22;30093;0.000;0.000;2022-11-04T04:00:14;12.70;1.00
44377;DHT22;30093;0.000;0.000;2022-11-04T04:08:34;12.70;1.00
44377;DHT22;30093;0.000;0.000;2022-11-04T04:12:39;12.70;1.00
44377;DHT22;30093;0.000;0.000;2022-11-04T04:16:39;12.60;1.00
44377;DHT22;30093;0.000;0.000;2022-11-04T04:20:31;12.60;1.00
44377;DHT22;30093;0.000;0.000;2022-11-04T04:24:25;12.70;1.00
44377;DHT22;30093;0.000;0.000;2022-11-04T04:28:33;12.60;1.00
44377;DHT22;30093;0.000;0.000;2022-11-04T04:32:25;12.70;1.00
44377;DHT22;30093;0.000;0.000;2022-11-04T04:36:15;12.70;1.00
44377;DHT22;30093;0.000;0.000;2022-11-04T04:40:04;12.90;1.00
44377;DHT22;30093;0.000;0.000;2022-11-04T04:44:30;12.70;1.00
44377;DHT22;30093;0.000;0.000;2022-11-04T04:48:37;12.70;1.00
44377;DHT22;30093;0.000;0.000;2022-11-04T04:52:40;12.60;1.00
44377;DHT22;30093;0.000;0.000;2022-11-04T04:56:28;12.60;1.00
44377;DHT22;30093;0.000;0.000;2022-11-04T05:00:18;12.60;1.00
44377;DHT22;30093;0.000;0.000;2022-11-04T05:04:08;12.60;1.00
44377;DHT22;30093;0.000;0.000;2022-11-04T05:08:04;12.50;1.00
44377;DHT22;30093;0.000;0.000;2022-11-04T05:11:54;12.60;1.00
44377;DHT22;30093;0.000;0.000;2022-11-04T05:15:42;12.60;1.00
44377;DHT22;30093;0.000;0.000;2022-11-04T05:19:29;12.70;1.00
44377;DHT22;30093;0.000;0.000;2022-11-04T05:23:18;12.70;1.00
44377;DHT22;30093;0.000;0.000;2022-11-04T05:27:06;12.70;1.00
44377;DHT22;30093;0.000;0.000;2022-11-04T05:30:55;12.70;1.00
44377;DHT22;30093;0.000;0.000;2022-11-04T05:34:43;12.70;1.00
44377;DHT22;30093;0.000;0.000;2022-11-04T05:38:31;12.70;1.00
44377;DHT22;30093;0.000;0.000;2022-11-04T05:42:19;12.70;1.00
44377;DHT22;30093;0.000;0.000;2022-11-04T05:46:07;12.70;1.00
44377;DHT22;30093;0.000;0.000;2022-11-04T05:49:55;12.60;1.00
44377;DHT22;30093;0.000;0.000;2022-11-04T05:53:43;12.60;1.00
44377;DHT22;30093;0.000;0.000;2022-11-04T05:57:31;12.60;1.00
44377;DHT22;30093;0.000;0.000;2022-11-04T06:01:34;12.60;1.00
44377;DHT22;30093;0.000;0.000;2022-11-04T06:05:23;12.60;1.00
44377;DHT22;30093;0.000;0.000;2022-11-04T06:09:12;12.50;1.00
44377;DHT22;30093;0.000;0.000;2022-11-04T06:13:01;12.60;1.00
44377;DHT22;30093;0.000;0.000;2022-11-04T06:16:48;12.50;1.00
44377;DHT22;30093;0.000;0.000;2022-11-04T06:20:36;12.50;1.00
44377;DHT22;30093;0.000;0.000;2022-11-04T06:24:25;12.50;1.00
44377;DHT22;30093;0.000;0.000;2022-11-04T06:28:13;12.40;1.00
44377;DHT22;30093;0.000;0.000;2022-11-04T06:32:02;12.40;1.00
44377;DHT22;30093;0.000;0.000;2022-11-04T06:35:50;12.40;1.00
44377;DHT22;30093;0.000;0.000;2022-11-04T06:39:39;12.40;1.00
44377;DHT22;30093;0.000;0.000;2022-11-04T06:43:27;12.40;1.00
44377;DHT22;30093;0.000;0.000;2022-11-04T06:47:16;12.40;1.00
44377;DHT22;30093;0.000;0.000;2022-11-04T06:51:04;12.40;1.00
44377;DHT22;30093;0.000;0.000;2022-11-04T06:54:53;12.40;1.00
44377;DHT22;30093;0.000;0.000;2022-11-04T06:58:42;12.40;1.00
44377;DHT22;30093;0.000;0.000;2022-11-04T07:02:31;12.30;1.00
44377;DHT22;30093;0.000;0.000;2022-11-04T07:06:20;12.40;1.00
44377;DHT22;30093;0.000;0.000;2022-11-04T07:10:09;12.40;1.00
44377;DHT22;30093;0.000;0.000;2022-11-04T07:13:58;12.40;1.00
44377;DHT22;30093;0.000;0.000;2022-11-04T07:17:46;12.40;1.00
44377;DHT22;30093;0.000;0.000;2022-11-04T07:21:35;12.50;1.00
44377;DHT22;30093;0.000;0.000;2022-11-04T07:25:22;12.50;1.00
44377;DHT22;30093;0.000;0.000;2022-11-04T07:29:11;12.60;1.00
44377;DHT22;30093;0.000;0.000;2022-11-04T07:32:59;12.60;1.00
44377;DHT22;30093;0.000;0.000;2022-11-04T07:36:47;12.60;1.00
44377;DHT22;30093;0.000;0.000;2022-11-04T07:40:36;12.60;1.00
44377;DHT22;30093;0.000;0.000;2022-11-04T07:44:27;12.70;1.00
44377;DHT22;30093;0.000;0.000;2022-11-04T07:48:15;12.70;1.00
44377;DHT22;30093;0.000;0.000;2022-11-04T07:52:04;12.70;1.00
44377;DHT22;30093;0.000;0.000;2022-11-04T07:55:52;12.80;1.00
44377;DHT22;30093;0.000;0.000;2022-11-04T07:59:41;12.80;1.00
44377;DHT22;30093;0.000;0.000;2022-11-04T08:03:29;12.70;1.00
44377;DHT22;30093;0.000;0.000;2022-11-04T08:07:18;12.70;1.00
44377;DHT22;30093;0.000;0.000;2022-11-04T08:11:10;12.70;1.00
44377;DHT22;30093;0.000;0.000;2022-11-04T08:14:59;12.70;1.00
44377;DHT22;30093;0.000;0.000;2022-11-04T08:18:49;12.70;1.00
44377;DHT22;30093;0.000;0.000;2022-11-04T08:22:39;12.80;1.00
44377;DHT22;30093;0.000;0.000;2022-11-04T08:26:28;12.80;1.00
44377;DHT22;30093;0.000;0.000;2022-11-04T08:30:16;12.80;1.00
44377;DHT22;30093;0.000;0.000;2022-11-04T08:34:05;12.80;1.00
44377;DHT22;30093;0.000;0.000;2022-11-04T08:37:55;12.80;1.00
44377;DHT22;30093;0.000;0.000;2022-11-04T08:41:43;12.80;1.00
44377;DHT22;30093;0.000;0.000;2022-11-04T08:45:32;12.70;1.00
44377;DHT22;30093;0.000;0.000;2022-11-04T08:49:20;12.70;1.00
44377;DHT22;30093;0.000;0.000;2022-11-04T08:53:08;12.80;1.00
44377;DHT22;30093;0.000;0.000;2022-11-04T08:56:57;12.80;3.00
44377;DHT22;30093;0.000;0.000;2022-11-04T09:00:46;12.80;8.20
44377;DHT22;30093;0.000;0.000;2022-11-04T09:04:34;12.90;1.40
44377;DHT22;30093;0.000;0.000;2022-11-04T09:08:23;12.90;4.90
44377;DHT22;30093;0.000;0.000;2022-11-04T09:12:11;12.90;1.00
44377;DHT22;30093;0.000;0.000;2022-11-04T09:15:59;13.00;1.00
44377;DHT22;30093;0.000;0.000;2022-11-04T09:19:48;13.00;7.60
44377;DHT22;30093;0.000;0.000;2022-11-04T09:23:37;12.90;8.80
44377;DHT22;30093;0.000;0.000;2022-11-04T09:27:26;13.00;7.00
44377;DHT22;30093;0.000;0.000;2022-11-04T09:31:16;13.00;9.80
44377;DHT22;30093;0.000;0.000;2022-11-04T09:35:05;13.00;14.90
44377;DHT22;30093;0.000;0.000;2022-11-04T09:38:54;13.00;18.40
44377;DHT22;30093;0.000;0.000;2022-11-04T09:46:41;13.10;19.80
44377;DHT22;30093;0.000;0.000;2022-11-04T09:50:47;13.10;22.60
44377;DHT22;30093;0.000;0.000;2022-11-04T09:55:20;13.10;28.30
44377;DHT22;30093;0.000;0.000;2022-11-04T09:59:09;13.20;26.50
44377;DHT22;30093;0.000;0.000;2022-11-04T10:03:18;13.30;16.00
44377;DHT22;30093;0.000;0.000;2022-11-04T10:07:24;13.20;25.40
44377;DHT22;30093;0.000;0.000;2022-11-04T10:11:50;13.20;44.60
44377;DHT22;30093;0.000;0.000;2022-11-04T10:20:10;13.30;78.10
44377;DHT22;30093;0.000;0.000;2022-11-04T10:27:50;13.40;99.90
44377;DHT22;30093;0.000;0.000;2022-11-04T10:31:39;13.40;99.90
44377;DHT22;30093;0.000;0.000;2022-11-04T10:35:41;13.40;99.90
44377;DHT22;30093;0.000;0.000;2022-11-04T10:39:35;13.40;99.90
44377;DHT22;30093;0.000;0.000;2022-11-04T10:43:50;13.40;99.90
44377;DHT22;30093;0.000;0.000;2022-11-04T10:47:54;13.40;99.90
44377;DHT22;30093;0.000;0.000;2022-11-04T10:51:43;13.40;99.90
44377;DHT22;30093;0.000;0.000;2022-11-04T11:00:02;13.50;1.00
44377;DHT22;30093;0.000;0.000;2022-11-04T11:03:53;13.50;1.00
44377;DHT22;30093;0.000;0.000;2022-11-04T11:07:46;13.50;1.00
44377;DHT22;30093;0.000;0.000;2022-11-04T11:11:42;13.50;1.00
44377;DHT22;30093;0.000;0.000;2022-11-04T11:15:34;13.50;1.00
44377;DHT22;30093;0.000;0.000;2022-11-04T11:19:24;13.60;1.00
44377;DHT22;30093;0.000;0.000;2022-11-04T11:27:25;13.70;99.90
44377;DHT22;30093;0.000;0.000;2022-11-04T11:31:14;13.60;99.90
44377;DHT22;30093;0.000;0.000;2022-11-04T11:35:24;13.70;1.00
44377;DHT22;30093;0.000;0.000;2022-11-04T11:39:18;13.70;1.00
44377;DHT22;30093;0.000;0.000;2022-11-04T11:43:25;13.70;99.90
44377;DHT22;30093;0.000;0.000;2022-11-04T11:47:18;13.60;1.00
44377;DHT22;30093;0.000;0.000;2022-11-04T11:51:12;13.60;1.00
44377;DHT22;30093;0.000;0.000;2022-11-04T11:59:05;13.60;1.00
44377;DHT22;30093;0.000;0.000;2022-11-04T12:07:43;13.60;56.00
44377;DHT22;30093;0.000;0.000;2022-11-04T12:15:37;13.70;1.00
44377;DHT22;30093;0.000;0.000;2022-11-04T12:19:38;13.70;1.00
44377;DHT22;30093;0.000;0.000;2022-11-04T12:39:27;13.80;99.90
44377;DHT22;30093;0.000;0.000;2022-11-04T12:43:27;13.80;99.90
44377;DHT22;30093;0.000;0.000;2022-11-04T12:47:24;13.70;1.00
44377;DHT22;30093;0.000;0.000;2022-11-04T12:51:49;13.70;1.00
44377;DHT22;30093;0.000;0.000;2022-11-04T13:00:09;13.60;1.00
44377;DHT22;30093;0.000;0.000;2022-11-04T13:04:20;13.70;1.00
44377;DHT22;30093;0.000;0.000;2022-11-04T13:12:19;13.70;1.00
44377;DHT22;30093;0.000;0.000;2022-11-04T13:16:10;13.70;1.00
44377;DHT22;30093;0.000;0.000;2022-11-04T13:20:23;13.70;1.00
44377;DHT22;30093;0.000;0.000;2022-11-04T13:24:21;13.70;1.00
44377;DHT22;30093;0.000;0.000;2022-11-04T13:28:19;13.70;1.00
44377;DHT22;30093;0.000;0.000;2022-11-04T13:32:22;13.70;1.00
44377;DHT22;30093;0.000;0.000;2022-11-04T13:36:51;13.60;99.90
44377;DHT22;30093;0.000;0.000;2022-11-04T13:41:02;13.60;99.90
44377;DHT22;30093;0.000;0.000;2022-11-04T13:44:54;13.60;99.90
44377;DHT22;30093;0.000;0.000;2022-11-04T13:52:58;13.60;99.90
44377;DHT22;30093;0.000;0.000;2022-11-04T13:56:47;13.50;99.90
44377;DHT22;30093;0.000;0.000;2022-11-04T14:00:35;13.50;99.90
44377;DHT22;30093;0.000;0.000;2022-11-04T14:04:29;13.50;1.00
44377;DHT22;30093;0.000;0.000;2022-11-04T14:08:18;13.50;1.00
44377;DHT22;30093;0.000;0.000;2022-11-04T14:16:36;13.40;99.90
44377;DHT22;30093;0.000;0.000;2022-11-04T14:20:26;13.50;1.00
44377;DHT22;30093;0.000;0.000;2022-11-04T14:24:18;13.50;1.00
44377;DHT22;30093;0.000;0.000;2022-11-04T14:31:58;13.50;99.90
44377;DHT22;30093;0.000;0.000;2022-11-04T14:35:52;13.60;99.90
44377;DHT22;30093;0.000;0.000;2022-11-04T14:39:43;13.70;1.00
44377;DHT22;30093;0.000;0.000;2022-11-04T14:43:33;13.60;1.00
44377;DHT22;30093;0.000;0.000;2022-11-04T14:47:29;13.40;1.00
44377;DHT22;30093;0.000;0.000;2022-11-04T14:51:39;13.40;74.40
44377;DHT22;30093;0.000;0.000;2022-11-04T14:55:31;13.40;1.00
44377;DHT22;30093;0.000;0.000;2022-11-04T14:59:23;13.40;1.00
44377;DHT22;30093;0.000;0.000;2022-11-04T15:07:03;13.20;99.90
44377;DHT22;30093;0.000;0.000;2022-11-04T15:10:59;13.10;1.00
44377;DHT22;30093;0.000;0.000;2022-11-04T15:14:48;13.10;1.00
44377;DHT22;30093;0.000;0.000;2022-11-04T15:18:37;13.10;99.90
44377;DHT22;30093;0.000;0.000;2022-11-04T15:22:28;13.10;99.90
44377;DHT22;30093;0.000;0.000;2022-11-04T15:26:26;13.10;99.90
44377;DHT22;30093;0.000;0.000;2022-11-04T15:30:28;13.00;99.90
44377;DHT22;30093;0.000;0.000;2022-11-04T15:34:18;13.00;1.00
44377;DHT22;30093;0.000;0.000;2022-11-04T15:38:11;13.00;1.00
44377;DHT22;30093;0.000;0.000;2022-11-04T15:42:02;13.00;99.90
44377;DHT22;30093;0.000;0.000;2022-11-04T15:46:17;12.80;1.00
44377;DHT22;30093;0.000;0.000;2022-11-04T15:50:21;12.80;99.90
44377;DHT22;30093;0.000;0.000;2022-11-04T15:54:24;12.80;99.90
44377;DHT22;30093;0.000;0.000;2022-11-04T15:58:15;12.80;99.90
44377;DHT22;30093;0.000;0.000;2022-11-04T16:02:28;12.80;1.00
44377;DHT22;30093;0.000;0.000;2022-11-04T16:06:30;12.80;1.00
44377;DHT22;30093;0.000;0.000;2022-11-04T16:10:25;12.80;99.90
44377;DHT22;30093;0.000;0.000;2022-11-04T16:14:23;12.90;1.00
44377;DHT22;30093;0.000;0.000;2022-11-04T16:18:32;13.00;9.20
44377;DHT22;30093;0.000;0.000;2022-11-04T16:22:35;12.90;10.40
44377;DHT22;30093;0.000;0.000;2022-11-04T16:26:29;13.00;1.00
44377;DHT22;30093;0.000;0.000;2022-11-04T16:30:20;12.80;1.00
44377;DHT22;30093;0.000;0.000;2022-11-04T16:34:11;12.70;99.90
44377;DHT22;30093;0.000;0.000;2022-11-04T16:38:00;12.80;1.00
44377;DHT22;30093;0.000;0.000;2022-11-04T16:41:49;12.80;1.00
44377;DHT22;30093;0.000;0.000;2022-11-04T16:45:37;12.80;1.00
44377;DHT22;30093;0.000;0.000;2022-11-04T16:49:26;12.70;1.00
44377;DHT22;30093;0.000;0.000;2022-11-04T16:53:15;12.60;1.00
44377;DHT22;30093;0.000;0.000;2022-11-04T16:57:03;12.60;1.00
44377;DHT22;30093;0.000;0.000;2022-11-04T17:00:54;12.50;1.00
44377;DHT22;30093;0.000;0.000;2022-11-04T17:04:42;12.50;1.00
44377;DHT22;30093;0.000;0.000;2022-11-04T17:08:31;12.40;1.00
44377;DHT22;30093;0.000;0.000;2022-11-04T17:12:20;12.30;1.00
44377;DHT22;30093;0.000;0.000;2022-11-04T17:16:11;12.20;1.00
44377;DHT22;30093;0.000;0.000;2022-11-04T17:20:00;12.10;1.00
44377;DHT22;30093;0.000;0.000;2022-11-04T17:23:48;12.00;1.00
44377;DHT22;30093;0.000;0.000;2022-11-04T17:27:37;11.90;1.00
44377;DHT22;30093;0.000;0.000;2022-11-04T17:31:28;11.90;38.70
44377;DHT22;30093;0.000;0.000;2022-11-04T17:35:17;11.80;99.90
44377;DHT22;30093;0.000;0.000;2022-11-04T17:39:05;11.70;99.90
44377;DHT22;30093;0.000;0.000;2022-11-04T17:42:53;11.70;99.90
44377;DHT22;30093;0.000;0.000;2022-11-04T17:47:00;11.70;99.90
44377;DHT22;30093;0.000;0.000;2022-11-04T17:50:48;11.70;99.90
44377;DHT22;30093;0.000;0.000;2022-11-04T17:54:36;11.70;99.90
44377;DHT22;30093;0.000;0.000;2022-11-04T17:58:24;11.70;99.90
44377;DHT22;30093;0.000;0.000;2022-11-04T18:02:12;11.70;99.90
44377;DHT22;30093;0.000;0.000;2022-11-04T18:06:02;11.70;99.90
44377;DHT22;30093;0.000;0.000;2022-11-04T18:09:51;11.80;99.90
44377;DHT22;30093;0.000;0.000;2022-11-04T18:13:40;11.70;99.90
44377;DHT22;30093;0.000;0.000;2022-11-04T18:17:34;11.80;99.90
44377;DHT22;30093;0.000;0.000;2022-11-04T18:21:23;11.80;99.90
44377;DHT22;30093;0.000;0.000;2022-11-04T18:25:12;11.80;99.90
44377;DHT22;30093;0.000;0.000;2022-11-04T18:29:05;11.80;99.90
44377;DHT22;30093;0.000;0.000;2022-11-04T18:32:54;11.80;97.50
44377;DHT22;30093;0.000;0.000;2022-11-04T18:36:44;11.80;48.00
44377;DHT22;30093;0.000;0.000;2022-11-04T18:40:33;11.80;60.20
44377;DHT22;30093;0.000;0.000;2022-11-04T18:44:26;11.00;1.00
44377;DHT22;30093;0.000;0.000;2022-11-04T18:48:14;11.90;1.00
44377;DHT22;30093;0.000;0.000;2022-11-04T18:52:04;12.00;1.00
44377;DHT22;30093;0.000;0.000;2022-11-04T18:55:52;11.90;1.00
44377;DHT22;30093;0.000;0.000;2022-11-04T18:59:40;11.90;1.00
44377;DHT22;30093;0.000;0.000;2022-11-04T19:03:29;12.00;1.00
44377;DHT22;30093;0.000;0.000;2022-11-04T19:07:18;12.10;1.00
44377;DHT22;30093;0.000;0.000;2022-11-04T19:11:18;12.10;1.00
44377;DHT22;30093;0.000;0.000;2022-11-04T19:15:07;12.00;1.00
44377;DHT22;30093;0.000;0.000;2022-11-04T19:19:04;12.00;1.00
44377;DHT22;30093;0.000;0.000;2022-11-04T19:22:53;12.00;1.00
44377;DHT22;30093;0.000;0.000;2022-11-04T19:26:41;12.00;1.00
44377;DHT22;30093;0.000;0.000;2022-11-04T19:30:35;12.10;1.00
44377;DHT22;30093;0.000;0.000;2022-11-04T19:34:27;12.10;1.00
44377;DHT22;30093;0.000;0.000;2022-11-04T19:38:15;12.10;1.00
44377;DHT22;30093;0.000;0.000;2022-11-04T19:42:04;12.00;1.00
44377;DHT22;30093;0.000;0.000;2022-11-04T19:46:11;12.10;1.00
44377;DHT22;30093;0.000;0.000;2022-11-04T19:49:59;12.10;1.00
44377;DHT22;30093;0.000;0.000;2022-11-04T19:53:48;12.00;1.00
44377;DHT22;30093;0.000;0.000;2022-11-04T19:57:37;12.10;1.00
44377;DHT22;30093;0.000;0.000;2022-11-04T20:01:26;12.10;1.00
44377;DHT22;30093;0.000;0.000;2022-11-04T20:05:15;12.10;33.80
44377;DHT22;30093;0.000;0.000;2022-11-04T20:09:05;12.20;75.80
44377;DHT22;30093;0.000;0.000;2022-11-04T20:12:54;12.20;94.80
44377;DHT22;30093;0.000;0.000;2022-11-04T20:17:03;12.00;99.90
44377;DHT22;30093;0.000;0.000;2022-11-04T20:20:51;12.10;99.90
44377;DHT22;30093;0.000;0.000;2022-11-04T20:24:39;10.90;99.90
44377;DHT22;30093;0.000;0.000;2022-11-04T20:28:27;12.10;99.90
44377;DHT22;30093;0.000;0.000;2022-11-04T20:32:15;12.10;99.90
44377;DHT22;30093;0.000;0.000;2022-11-04T20:36:05;12.10;99.90
44377;DHT22;30093;0.000;0.000;2022-11-04T20:39:54;12.10;99.90
44377;DHT22;30093;0.000;0.000;2022-11-04T20:43:42;12.10;99.90
44377;DHT22;30093;0.000;0.000;2022-11-04T20:47:31;12.10;99.90
44377;DHT22;30093;0.000;0.000;2022-11-04T20:51:22;12.10;99.90
44377;DHT22;30093;0.000;0.000;2022-11-04T20:55:10;12.10;99.90
44377;DHT22;30093;0.000;0.000;2022-11-04T20:58:59;12.10;99.90
44377;DHT22;30093;0.000;0.000;2022-11-04T21:02:47;12.10;99.90
44377;DHT22;30093;0.000;0.000;2022-11-04T21:06:36;12.00;99.90
44377;DHT22;30093;0.000;0.000;2022-11-04T21:10:25;12.10;99.90
44377;DHT22;30093;0.000;0.000;2022-11-04T21:14:15;12.00;99.90
44377;DHT22;30093;0.000;0.000;2022-11-04T21:18:03;11.90;99.90
44377;DHT22;30093;0.000;0.000;2022-11-04T21:21:51;11.90;99.90
44377;DHT22;30093;0.000;0.000;2022-11-04T21:25:48;11.90;99.90
44377;DHT22;30093;0.000;0.000;2022-11-04T21:29:36;12.00;99.90
44377;DHT22;30093;0.000;0.000;2022-11-04T21:33:24;11.90;99.90
44377;DHT22;30093;0.000;0.000;2022-11-04T21:37:12;11.80;99.90
44377;DHT22;30093;0.000;0.000;2022-11-04T21:41:07;11.80;99.90
44377;DHT22;30093;0.000;0.000;2022-11-04T21:44:56;11.70;99.90
44377;DHT22;30093;0.000;0.000;2022-11-04T21:48:44;11.60;99.90
44377;DHT22;30093;0.000;0.000;2022-11-04T21:52:32;11.60;22.70
44377;DHT22;30093;0.000;0.000;2022-11-04T21:56:23;11.60;1.00
44377;DHT22;30093;0.000;0.000;2022-11-04T22:00:12;11.60;1.00
44377;DHT22;30093;0.000;0.000;2022-11-04T22:04:03;11.60;1.00
44377;DHT22;30093;0.000;0.000;2022-11-04T22:07:51;11.60;1.00
44377;DHT22;30093;0.000;0.000;2022-11-04T22:11:58;11.50;1.00
44377;DHT22;30093;0.000;0.000;2022-11-04T22:15:46;11.40;1.00
44377;DHT22;30093;0.000;0.000;2022-11-04T22:19:46;11.50;1.00
44377;DHT22;30093;0.000;0.000;2022-11-04T22:23:35;11.40;99.90
44377;DHT22;30093;0.000;0.000;2022-11-04T22:27:23;11.40;1.00
44377;DHT22;30093;0.000;0.000;2022-11-04T22:31:15;11.40;1.00
44377;DHT22;30093;0.000;0.000;2022-11-04T22:35:04;11.30;99.90
44377;DHT22;30093;0.000;0.000;2022-11-04T22:38:52;11.40;99.90
44377;DHT22;30093;0.000;0.000;2022-11-04T22:42:40;11.40;99.90
44377;DHT22;30093;0.000;0.000;2022-11-04T22:46:31;11.40;99.90
44377;DHT22;30093;0.000;0.000;2022-11-04T22:50:20;11.20;1.00
44377;DHT22;30093;0.000;0.000;2022-11-04T22:54:09;11.20;1.00
44377;DHT22;30093;0.000;0.000;2022-11-04T22:57:57;11.10;1.00
44377;DHT22;30093;0.000;0.000;2022-11-04T23:01:45;11.10;99.90
44377;DHT22;30093;0.000;0.000;2022-11-04T23:05:34;11.10;1.00
44377;DHT22;30093;0.000;0.000;2022-11-04T23:09:22;11.00;1.00
44377;DHT22;30093;0.000;0.000;2022-11-04T23:13:11;11.00;1.00
44377;DHT22;30093;0.000;0.000;2022-11-04T23:17:20;10.90;1.00
44377;DHT22;30093;0.000;0.000;2022-11-04T23:21:27;10.80;12.70
44377;DHT22;30093;0.000;0.000;2022-11-04T23:25:34;10.60;1.00
44377;DHT22;30093;0.000;0.000;2022-11-04T23:29:22;10.60;99.90
44377;DHT22;30093;0.000;0.000;2022-11-04T23:33:28;10.60;1.00
44377;DHT22;30093;0.000;0.000;2022-11-04T23:37:34;10.50;1.00
44377;DHT22;30093;0.000;0.000;2022-11-04T23:41:22;10.60;1.00
44377;DHT22;30093;0.000;0.000;2022-11-04T23:45:29;10.60;1.00
44377;DHT22;30093;0.000;0.000;2022-11-04T23:49:36;10.70;99.90
44377;DHT22;30093;0.000;0.000;2022-11-04T23:53:43;10.60;99.90
44377;DHT22;30093;0.000;0.000;2022-11-04T23:57:50;10.60;1.00
